createdAt,value
2022-12-23T00:01:23.771Z,95199.47
2022-12-23T00:03:50.909Z,95188.63
2022-12-23T00:06:18.361Z,95190.81
2022-12-23T00:08:46.563Z,95187.41
2022-12-23T00:11:18.305Z,95174.38
2022-12-23T00:14:18.217Z,95173.97
2022-12-23T00:16:47.222Z,95161.72
2022-12-23T00:19:14.149Z,95177.19
2022-12-23T00:21:40.721Z,95173.03
2022-12-23T00:24:07.677Z,95164.91
2022-12-23T00:26:34.065Z,95157.59
2022-12-23T00:29:00.499Z,95153.13
2022-12-23T00:31:27.737Z,95148.63
2022-12-23T00:33:54.360Z,95136.75
2022-12-23T00:36:29.463Z,95129.22
2022-12-23T00:39:16.153Z,95140.00
2022-12-23T00:42:02.101Z,95146.59
2022-12-23T00:44:28.678Z,95154.13
2022-12-23T00:46:55.040Z,95146.59
2022-12-23T00:49:40.207Z,95154.28
2022-12-23T00:52:09.289Z,95144.91
2022-12-23T00:54:36.000Z,95142.84
2022-12-23T00:57:03.624Z,95135.97
2022-12-23T00:59:30.182Z,95136.03
2022-12-23T01:02:15.476Z,95138.22
2022-12-23T01:05:00.550Z,95150.25
2022-12-23T01:07:27.273Z,95131.94
2022-12-23T01:09:53.590Z,95147.53
2022-12-23T01:12:19.968Z,95155.63
2022-12-23T01:14:46.769Z,95147.78
2022-12-23T01:17:13.307Z,95146.91
2022-12-23T01:19:40.151Z,95149.97
2022-12-23T01:22:06.892Z,95155.41
2022-12-23T01:24:33.417Z,95161.06
2022-12-23T01:27:00.321Z,95148.06
2022-12-23T01:29:27.466Z,95169.00
2022-12-23T01:31:53.877Z,95159.28
2022-12-23T01:34:20.316Z,95166.56
2022-12-23T01:36:47.120Z,95178.16
2022-12-23T01:39:13.468Z,95163.97
2022-12-23T01:41:58.481Z,95175.94
2022-12-23T01:44:49.771Z,95172.06
2022-12-23T01:47:26.244Z,95182.22
2022-12-23T01:49:57.349Z,95186.69
2022-12-23T01:52:24.024Z,95198.72
2022-12-23T01:54:51.030Z,95179.34
2022-12-23T01:57:18.368Z,95190.72
2022-12-23T02:00:04.323Z,95191.53
2022-12-23T02:02:53.349Z,95190.91
2022-12-23T02:05:19.881Z,95188.66
2022-12-23T02:08:05.434Z,95194.31
2022-12-23T02:10:45.621Z,95180.50
2022-12-23T02:13:27.641Z,95198.84
2022-12-23T02:16:19.360Z,95213.44
2022-12-23T02:19:01.580Z,95209.22
2022-12-23T02:21:43.342Z,95208.75
2022-12-23T02:24:15.693Z,95215.66
2022-12-23T02:26:57.101Z,95213.44
2022-12-23T02:29:26.403Z,95219.38
2022-12-23T02:32:02.351Z,95211.03
2022-12-23T02:34:38.035Z,95218.91
2022-12-23T02:37:37.769Z,95222.63
2022-12-23T02:40:33.424Z,95217.13
2022-12-23T02:43:04.488Z,95231.16
2022-12-23T02:45:46.002Z,95227.06
2022-12-23T02:48:28.037Z,95220.38
2022-12-23T02:50:56.610Z,95227.06
2022-12-23T02:53:34.471Z,95218.09
2022-12-23T02:56:03.510Z,95222.78
2022-12-23T02:58:36.990Z,95214.84
2022-12-23T03:01:06.997Z,95216.25
2022-12-23T03:03:35.500Z,95222.34
2022-12-23T03:06:08.151Z,95219.88
2022-12-23T03:08:42.670Z,95235.72
2022-12-23T03:11:13.481Z,95225.59
2022-12-23T03:13:55.720Z,95223.69
2022-12-23T03:16:27.973Z,95232.22
2022-12-23T03:19:12.008Z,95239.13
2022-12-23T03:22:04.539Z,95242.56
2022-12-23T03:24:44.618Z,95244.19
2022-12-23T03:27:43.533Z,95236.47
2022-12-23T03:30:14.602Z,95230.16
2022-12-23T03:33:13.072Z,95234.84
2022-12-23T03:35:49.100Z,95253.50
2022-12-23T03:38:19.379Z,95236.63
2022-12-23T03:40:52.154Z,95243.53
2022-12-23T03:43:29.313Z,95248.59
2022-12-23T03:46:08.750Z,95259.09
2022-12-23T03:48:43.689Z,95248.75
2022-12-23T03:51:23.342Z,95251.16
2022-12-23T03:53:54.713Z,95256.44
2022-12-23T03:56:32.073Z,95260.31
2022-12-23T03:59:10.575Z,95259.09
2022-12-23T04:02:17.709Z,95263.31
2022-12-23T04:05:05.735Z,95263.88
2022-12-23T04:07:41.189Z,95280.06
2022-12-23T04:10:09.462Z,95273.63
2022-12-23T04:12:36.539Z,95259.59
2022-12-23T04:15:09.011Z,95265.88
2022-12-23T04:17:38.991Z,95282.94
2022-12-23T04:20:07.128Z,95289.59
2022-12-23T04:22:33.500Z,95281.25
2022-12-23T04:24:59.825Z,95283.31
2022-12-23T04:27:26.590Z,95278.84
2022-12-23T04:29:53.273Z,95282.88
2022-12-23T04:32:19.620Z,95276.34
2022-12-23T04:34:45.950Z,95279.59
2022-12-23T04:37:12.694Z,95294.22
2022-12-23T04:39:39.014Z,95295.66
2022-12-23T04:42:05.470Z,95310.56
2022-12-23T04:44:32.405Z,95314.97
2022-12-23T04:46:58.841Z,95312.91
2022-12-23T04:49:25.241Z,95322.63
2022-12-23T04:51:52.148Z,95310.78
2022-12-23T04:54:18.471Z,95321.59
2022-12-23T04:56:44.794Z,95337.19
2022-12-23T04:59:11.565Z,95334.31
2022-12-23T05:01:38.226Z,95333.75
2022-12-23T05:04:04.904Z,95332.34
2022-12-23T05:06:31.687Z,95319.09
2022-12-23T05:08:58.004Z,95316.91
2022-12-23T05:11:24.355Z,95310.00
2022-12-23T05:13:51.121Z,95324.31
2022-12-23T05:16:17.538Z,95329.16
2022-12-23T05:18:43.886Z,95337.03
2022-12-23T05:21:10.744Z,95335.63
2022-12-23T05:23:37.653Z,95339.53
2022-12-23T05:26:04.159Z,95341.19
2022-12-23T05:28:31.075Z,95344.06
2022-12-23T05:30:59.376Z,95344.66
2022-12-23T05:33:26.545Z,95359.84
2022-12-23T05:35:53.087Z,95351.16
2022-12-23T05:38:19.831Z,95346.28
2022-12-23T05:40:46.209Z,95343.81
2022-12-23T05:43:12.619Z,95347.28
2022-12-23T05:45:40.009Z,95339.81
2022-12-23T05:48:06.491Z,95354.63
2022-12-23T05:50:33.567Z,95359.09
2022-12-23T05:53:00.372Z,95361.81
2022-12-23T05:55:27.619Z,95363.38
2022-12-23T05:57:54.277Z,95358.91
2022-12-23T06:00:21.125Z,95375.56
2022-12-23T06:02:53.603Z,95368.03
2022-12-23T06:05:21.145Z,95375.53
2022-12-23T06:07:47.493Z,95378.53
2022-12-23T06:10:14.140Z,95379.13
2022-12-23T06:12:40.489Z,95378.31
2022-12-23T06:15:07.656Z,95379.13
2022-12-23T06:17:34.536Z,95383.19
2022-12-23T06:20:00.953Z,95383.59
2022-12-23T06:22:27.317Z,95389.34
2022-12-23T06:24:54.289Z,95395.16
2022-12-23T06:27:20.713Z,95405.75
2022-12-23T06:29:47.895Z,95400.69
2022-12-23T06:32:14.769Z,95394.19
2022-12-23T06:34:41.209Z,95396.63
2022-12-23T06:37:07.637Z,95400.06
2022-12-23T06:39:34.461Z,95409.63
2022-12-23T06:42:00.785Z,95405.97
2022-12-23T06:44:27.131Z,95411.44
2022-12-23T06:46:53.875Z,95402.28
2022-12-23T06:49:20.217Z,95408.81
2022-12-23T06:51:46.558Z,95411.63
2022-12-23T06:54:13.315Z,95403.91
2022-12-23T06:56:40.428Z,95407.56
2022-12-23T06:59:07.216Z,95409.78
2022-12-23T07:01:33.692Z,95416.91
2022-12-23T07:04:00.135Z,95420.97
2022-12-23T07:06:26.852Z,95415.84
2022-12-23T07:08:53.212Z,95415.25
2022-12-23T07:11:19.566Z,95419.50
2022-12-23T07:13:46.934Z,95418.66
2022-12-23T07:16:13.356Z,95423.13
2022-12-23T07:18:40.463Z,95436.72
2022-12-23T07:21:13.366Z,95428.59
2022-12-23T07:23:45.234Z,95437.59
2022-12-23T07:26:11.780Z,95432.13
2022-12-23T07:28:38.252Z,95432.72
2022-12-23T07:31:08.290Z,95442.28
2022-12-23T07:33:34.640Z,95446.94
2022-12-23T07:36:00.990Z,95456.22
2022-12-23T07:38:27.652Z,95446.47
2022-12-23T07:40:53.981Z,95459.06
2022-12-23T07:43:20.342Z,95456.34
2022-12-23T07:45:47.265Z,95451.47
2022-12-23T07:48:13.724Z,95444.53
2022-12-23T07:50:40.099Z,95445.28
2022-12-23T07:53:08.081Z,95446.53
2022-12-23T07:55:34.406Z,95435.53
2022-12-23T07:58:01.353Z,95452.00
2022-12-23T08:00:27.688Z,95447.53
2022-12-23T08:02:54.147Z,95438.75
2022-12-23T08:05:21.039Z,95438.34
2022-12-23T08:07:49.763Z,95428.50
2022-12-23T08:10:16.214Z,95438.22
2022-12-23T08:12:42.969Z,95444.69
2022-12-23T08:15:09.474Z,95434.09
2022-12-23T08:17:35.778Z,95434.84
2022-12-23T08:20:02.155Z,95441.78
2022-12-23T08:22:31.476Z,95431.53
2022-12-23T08:24:59.284Z,95432.34
2022-12-23T08:27:25.960Z,95451.47
2022-12-23T08:29:52.904Z,95458.19
2022-12-23T08:32:19.452Z,95455.94
2022-12-23T08:34:45.792Z,95466.91
2022-12-23T08:37:12.743Z,95479.09
2022-12-23T08:39:39.128Z,95477.25
2022-12-23T08:42:05.492Z,95479.63
2022-12-23T08:44:32.818Z,95486.09
2022-12-23T08:46:59.327Z,95484.19
2022-12-23T08:49:25.672Z,95487.13
2022-12-23T08:51:52.508Z,95475.94
2022-12-23T08:54:20.251Z,95472.63
2022-12-23T08:56:46.708Z,95478.09
2022-12-23T08:59:19.214Z,95471.13
2022-12-23T09:01:47.132Z,95470.31
2022-12-23T09:04:13.615Z,95462.13
2022-12-23T09:06:42.250Z,95476.09
2022-12-23T09:09:13.316Z,95475.00
2022-12-23T09:11:39.945Z,95467.41
2022-12-23T09:14:08.865Z,95482.72
2022-12-23T09:16:35.602Z,95484.22
2022-12-23T09:19:02.108Z,95484.06
2022-12-23T09:21:29.698Z,95479.56
2022-12-23T09:23:56.031Z,95474.63
2022-12-23T09:26:26.654Z,95474.19
2022-12-23T09:28:53.496Z,95470.88
2022-12-23T09:31:21.379Z,95483.47
2022-12-23T09:36:23.001Z,95480.81
2022-12-23T09:38:57.403Z,95465.34
2022-12-23T09:41:49.088Z,95476.19
2022-12-23T09:44:18.338Z,95477.16
2022-12-23T09:46:51.835Z,95488.75
2022-12-23T09:49:19.554Z,95470.44
2022-12-23T09:51:49.355Z,95467.13
2022-12-23T09:54:45.796Z,95461.84
2022-12-23T09:57:23.716Z,95464.91
2022-12-23T10:00:02.993Z,95456.53
2022-12-23T10:02:45.402Z,95455.06
2022-12-23T10:05:27.365Z,95451.38
2022-12-23T10:07:59.171Z,95448.78
2022-12-23T10:10:41.214Z,95449.53
2022-12-23T10:13:19.187Z,95448.25
2022-12-23T10:15:49.177Z,95460.50
2022-12-23T10:18:25.074Z,95447.84
2022-12-23T10:20:57.990Z,95440.47
2022-12-23T10:23:32.876Z,95447.41
2022-12-23T10:26:01.616Z,95440.81
2022-12-23T10:28:32.398Z,95433.22
2022-12-23T10:31:31.019Z,95427.94
2022-12-23T10:34:39.448Z,95433.00
2022-12-23T10:37:17.658Z,95420.56
2022-12-23T10:40:15.547Z,95427.84
2022-12-23T10:43:02.355Z,95425.53
2022-12-23T10:46:01.241Z,95426.72
2022-12-23T10:48:38.112Z,95408.38
2022-12-23T10:51:15.777Z,95420.16
2022-12-23T10:53:59.041Z,95421.19
2022-12-23T10:56:25.974Z,95413.59
2022-12-23T10:58:58.219Z,95407.03
2022-12-23T11:01:27.346Z,95406.13
2022-12-23T11:04:17.816Z,95399.44
2022-12-23T11:06:48.197Z,95407.38
2022-12-23T11:09:25.828Z,95397.22
2022-12-23T11:12:04.449Z,95390.44
2022-12-23T11:14:39.132Z,95387.56
2022-12-23T11:17:25.620Z,95390.94
2022-12-23T11:20:10.459Z,95385.72
2022-12-23T11:23:00.133Z,95390.97
2022-12-23T11:25:28.320Z,95393.81
2022-12-23T11:27:59.074Z,95389.47
2022-12-23T11:30:25.983Z,95378.41
2022-12-23T11:32:52.710Z,95378.28
2022-12-23T11:35:29.911Z,95369.66
2022-12-23T11:37:58.407Z,95363.66
2022-12-23T11:40:36.211Z,95357.97
2022-12-23T11:43:05.946Z,95355.69
2022-12-23T11:45:38.399Z,95349.31
2022-12-23T11:48:06.385Z,95340.09
2022-12-23T11:50:39.327Z,95342.31
2022-12-23T11:53:13.698Z,95341.03
2022-12-23T11:55:59.857Z,95340.56
2022-12-23T11:58:28.886Z,95334.66
2022-12-23T12:00:58.632Z,95332.00
2022-12-23T12:03:34.558Z,95325.44
2022-12-23T12:06:05.058Z,95317.16
2022-12-23T12:08:37.680Z,95317.34
2022-12-23T12:11:18.257Z,95318.41
2022-12-23T12:13:54.036Z,95308.25
2022-12-23T12:16:38.996Z,95306.66
2022-12-23T12:19:13.180Z,95300.16
2022-12-23T12:21:39.613Z,95293.84
2022-12-23T12:24:20.782Z,95303.19
2022-12-23T12:26:54.242Z,95306.06
2022-12-23T12:29:20.899Z,95300.16
2022-12-23T12:31:50.554Z,95283.81
2022-12-23T12:34:31.801Z,95285.44
2022-12-23T12:37:18.344Z,95279.88
2022-12-23T12:40:01.639Z,95276.78
2022-12-23T12:42:38.097Z,95266.38
2022-12-23T12:45:20.584Z,95273.50
2022-12-23T12:48:18.718Z,95261.06
2022-12-23T12:51:24.654Z,95264.53
2022-12-23T12:54:04.422Z,95251.72
2022-12-23T12:56:48.930Z,95252.53
2022-12-23T12:59:19.562Z,95250.44
2022-12-23T13:02:05.512Z,95254.16
2022-12-23T13:04:54.185Z,95244.56
2022-12-23T13:07:28.578Z,95259.69
2022-12-23T13:10:15.293Z,95258.28
2022-12-23T13:12:53.682Z,95246.19
2022-12-23T13:15:34.105Z,95254.84
2022-12-23T13:18:33.564Z,95248.28
2022-12-23T13:21:07.300Z,95242.97
2022-12-23T13:23:52.755Z,95238.94
2022-12-23T13:26:45.440Z,95239.50
2022-12-23T13:29:24.333Z,95228.19
2022-12-23T13:32:03.606Z,95223.34
2022-12-23T13:35:01.336Z,95220.94
2022-12-23T13:37:49.531Z,95218.50
2022-12-23T13:40:37.005Z,95216.44
2022-12-23T13:43:10.001Z,95209.25
2022-12-23T13:45:40.171Z,95206.28
2022-12-23T13:48:18.312Z,95212.16
2022-12-23T13:50:58.682Z,95213.19
2022-12-23T13:53:56.871Z,95202.56
2022-12-23T13:56:31.619Z,95196.47
2022-12-23T13:58:58.472Z,95190.81
2022-12-23T14:01:40.609Z,95182.63
2022-12-23T14:04:37.048Z,95198.31
2022-12-23T14:07:19.269Z,95190.25
2022-12-23T14:09:52.078Z,95192.09
2022-12-23T14:12:26.700Z,95192.91
2022-12-23T14:15:01.693Z,95193.97
2022-12-23T14:17:43.138Z,95190.50
2022-12-23T14:20:36.429Z,95187.72
2022-12-23T14:23:14.733Z,95187.41
2022-12-23T14:26:24.677Z,95186.91
2022-12-23T14:29:12.795Z,95187.97
2022-12-23T14:31:42.478Z,95188.44
2022-12-23T14:34:32.825Z,95188.88
2022-12-23T14:37:15.715Z,95180.47
2022-12-23T14:39:42.718Z,95184.38
2022-12-23T14:42:14.968Z,95183.00
2022-12-23T14:44:46.860Z,95179.22
2022-12-23T14:47:32.450Z,95178.16
2022-12-23T14:50:32.604Z,95173.34
2022-12-23T14:53:01.012Z,95176.00
2022-12-23T14:55:30.682Z,95176.81
2022-12-23T14:58:13.122Z,95177.84
2022-12-23T15:00:54.874Z,95174.59
2022-12-23T15:03:22.798Z,95175.88
2022-12-23T15:05:50.877Z,95167.47
2022-12-23T15:08:31.829Z,95169.53
2022-12-23T15:10:59.161Z,95172.19
2022-12-23T15:13:28.556Z,95174.59
2022-12-23T15:16:01.473Z,95182.81
2022-12-23T15:18:29.184Z,95166.09
2022-12-23T15:21:04.464Z,95161.91
2022-12-23T15:23:31.116Z,95162.16
2022-12-23T15:26:00.007Z,95173.22
2022-12-23T15:28:37.785Z,95169.63
2022-12-23T15:31:05.552Z,95165.00
2022-12-23T15:34:02.981Z,95168.59
2022-12-23T15:36:31.652Z,95168.34
2022-12-23T15:39:00.340Z,95177.13
2022-12-23T15:41:27.525Z,95177.22
2022-12-23T15:43:58.416Z,95169.59
2022-12-23T15:46:29.904Z,95163.38
2022-12-23T15:48:57.465Z,95182.00
2022-12-23T15:52:05.085Z,95170.25
2022-12-23T15:54:22.808Z,95178.34
2022-12-23T15:56:52.502Z,95173.84
2022-12-23T15:59:33.127Z,95175.78
2022-12-23T16:02:24.873Z,95179.56
2022-12-23T16:04:57.403Z,95187.06
2022-12-23T16:07:33.738Z,95186.44
2022-12-23T16:10:11.716Z,95187.66
2022-12-23T16:12:39.067Z,95189.50
2022-12-23T16:15:29.434Z,95189.34
2022-12-23T16:18:19.061Z,95196.28
2022-12-23T16:20:48.680Z,95190.63
2022-12-23T16:23:16.329Z,95189.34
2022-12-23T16:25:51.622Z,95196.75
2022-12-23T16:28:40.345Z,95193.41
2022-12-23T16:31:08.375Z,95186.25
2022-12-23T16:33:39.596Z,95195.25
2022-12-23T16:36:25.581Z,95194.22
2022-12-23T16:39:18.828Z,95182.78
2022-12-23T16:41:45.512Z,95189.13
2022-12-23T16:44:11.893Z,95195.25
2022-12-23T16:46:42.468Z,95193.78
2022-12-23T16:49:15.039Z,95186.97
2022-12-23T16:51:41.905Z,95191.72
2022-12-23T16:54:18.428Z,95201.38
2022-12-23T16:56:46.783Z,95193.31
2022-12-23T16:59:14.120Z,95198.72
2022-12-23T17:01:44.849Z,95195.81
2022-12-23T17:04:11.647Z,95190.88
2022-12-23T17:06:39.544Z,95200.66
2022-12-23T17:09:08.220Z,95197.44
2022-12-23T17:11:40.054Z,95205.88
2022-12-23T17:14:13.569Z,95207.97
2022-12-23T17:16:42.362Z,95207.72
2022-12-23T17:19:08.857Z,95202.19
2022-12-23T17:21:39.679Z,95207.97
2022-12-23T17:24:23.146Z,95213.03
2022-12-23T17:26:50.011Z,95209.34
2022-12-23T17:29:16.382Z,95201.38
2022-12-23T17:31:44.437Z,95190.06
2022-12-23T17:34:21.865Z,95199.28
2022-12-23T17:36:50.712Z,95176.91
2022-12-23T17:39:17.516Z,95186.16
2022-12-23T17:41:44.031Z,95185.13
2022-12-23T17:44:15.336Z,95188.81
2022-12-23T17:46:42.051Z,95198.72
2022-12-23T17:49:08.891Z,95200.44
2022-12-23T17:51:35.994Z,95204.13
2022-12-23T17:54:04.453Z,95207.94
2022-12-23T17:56:30.799Z,95202.06
2022-12-23T17:58:58.499Z,95209.56
2022-12-23T18:01:31.484Z,95206.66
2022-12-23T18:04:00.045Z,95207.34
2022-12-23T18:06:28.491Z,95221.06
2022-12-23T18:08:57.012Z,95205.63
2022-12-23T18:11:36.774Z,95206.97
2022-12-23T18:14:04.025Z,95215.88
2022-12-23T18:16:30.501Z,95203.88
2022-12-23T18:18:57.393Z,95199.59
2022-12-23T18:21:26.626Z,95196.94
2022-12-23T18:23:56.563Z,95184.28
2022-12-23T18:26:23.139Z,95183.31
2022-12-23T18:28:50.639Z,95181.03
2022-12-23T18:31:19.607Z,95174.69
2022-12-23T18:33:47.079Z,95171.00
2022-12-23T18:36:27.719Z,95178.72
2022-12-23T18:38:55.097Z,95176.63
2022-12-23T18:41:22.058Z,95194.66
2022-12-23T18:43:48.685Z,95176.31
2022-12-23T18:46:15.975Z,95175.59
2022-12-23T18:48:42.542Z,95171.91
2022-12-23T18:51:14.513Z,95189.19
2022-12-23T18:53:41.908Z,95186.94
2022-12-23T18:56:13.013Z,95183.56
2022-12-23T18:58:39.346Z,95199.50
2022-12-23T19:01:06.533Z,95206.81
2022-12-23T19:03:33.127Z,95199.78
2022-12-23T19:06:06.897Z,95212.03
2022-12-23T19:08:34.940Z,95207.97
2022-12-23T19:11:02.077Z,95203.38
2022-12-23T19:13:28.853Z,95207.31
2022-12-23T19:15:55.301Z,95214.00
2022-12-23T19:18:21.954Z,95209.41
2022-12-23T19:20:49.232Z,95240.22
2022-12-23T19:23:16.408Z,95308.41
2022-12-23T19:25:49.115Z,95293.78
2022-12-23T19:28:21.264Z,95293.16
2022-12-23T19:30:47.861Z,95282.59
2022-12-23T19:33:14.283Z,95285.56
2022-12-23T19:35:41.934Z,95285.84
2022-12-23T19:38:08.551Z,95294.03
2022-12-23T19:40:34.909Z,95294.72
2022-12-23T19:43:01.341Z,95310.91
2022-12-23T19:45:28.067Z,95328.88
2022-12-23T19:47:54.392Z,95315.75
2022-12-23T19:50:22.670Z,95332.47
2022-12-23T19:52:50.527Z,95321.13
2022-12-23T19:55:17.056Z,95318.97
2022-12-23T19:57:44.023Z,95335.81
2022-12-23T20:00:11.017Z,95343.59
2022-12-23T20:02:37.375Z,95330.16
2022-12-23T20:05:04.849Z,95327.16
2022-12-23T20:07:31.218Z,95319.00
2022-12-23T20:09:57.536Z,95306.75
2022-12-23T20:12:25.591Z,95284.25
2022-12-23T20:14:51.937Z,95299.28
2022-12-23T20:17:18.244Z,95296.75
2022-12-23T20:19:46.367Z,95295.22
2022-12-23T20:22:13.016Z,95299.03
2022-12-23T20:24:39.399Z,95305.47
2022-12-23T20:27:10.978Z,95298.44
2022-12-23T20:29:38.377Z,95300.75
2022-12-23T20:32:04.970Z,95305.25
2022-12-23T20:34:36.731Z,95305.69
2022-12-23T20:37:06.165Z,95316.31
2022-12-23T20:39:32.873Z,95313.44
2022-12-23T20:41:59.196Z,95324.72
2022-12-23T20:44:35.068Z,95316.09
2022-12-23T20:47:03.003Z,95330.97
2022-12-23T20:49:29.537Z,95342.16
2022-12-23T20:51:55.948Z,95337.22
2022-12-23T20:54:29.823Z,95334.78
2022-12-23T20:56:58.724Z,95336.97
2022-12-23T20:59:25.585Z,95351.75
2022-12-23T21:01:52.196Z,95360.59
2022-12-23T21:04:18.754Z,95363.50
2022-12-23T21:06:45.638Z,95369.06
2022-12-23T21:09:15.218Z,95371.81
2022-12-23T21:11:43.910Z,95376.91
2022-12-23T21:14:11.281Z,95378.16
2022-12-23T21:16:38.240Z,95383.56
2022-12-23T21:19:06.568Z,95382.19
2022-12-23T21:21:33.353Z,95378.84
2022-12-23T21:24:01.781Z,95384.38
2022-12-23T21:26:29.495Z,95391.81
2022-12-23T21:29:01.319Z,95396.94
2022-12-23T21:31:29.813Z,95404.53
2022-12-23T21:33:56.883Z,95416.31
2022-12-23T21:36:26.908Z,95406.75
2022-12-23T21:38:53.785Z,95402.69
2022-12-23T21:41:22.692Z,95413.66
2022-12-23T21:43:49.958Z,95419.78
2022-12-23T21:46:19.096Z,95421.16
2022-12-23T21:48:46.107Z,95421.28
2022-12-23T21:51:18.709Z,95429.03
2022-12-23T21:53:47.020Z,95436.28
2022-12-23T21:56:15.723Z,95432.03
2022-12-23T21:58:42.647Z,95423.81
2022-12-23T22:01:14.414Z,95437.75
2022-12-23T22:03:42.648Z,95441.66
2022-12-23T22:06:17.731Z,95456.81
2022-12-23T22:08:44.694Z,95459.78
2022-12-23T22:11:17.407Z,95460.94
2022-12-23T22:13:45.919Z,95477.09
2022-12-23T22:16:17.985Z,95474.34
2022-12-23T22:18:45.323Z,95475.78
2022-12-23T22:21:15.399Z,95490.28
2022-12-23T22:23:42.633Z,95489.41
2022-12-23T22:26:12.188Z,95483.09
2022-12-23T22:28:39.130Z,95497.81
2022-12-23T22:31:13.740Z,95503.78
2022-12-23T22:33:40.068Z,95493.25
2022-12-23T22:36:06.864Z,95500.06
2022-12-23T22:38:33.570Z,95499.00
2022-12-23T22:40:59.887Z,95500.19
2022-12-23T22:43:26.228Z,95493.16
2022-12-23T22:46:01.045Z,95500.66
2022-12-23T22:48:29.419Z,95509.13
2022-12-23T22:51:09.721Z,95511.13
2022-12-23T22:53:36.608Z,95514.09
2022-12-23T22:56:04.501Z,95510.69
2022-12-23T22:58:33.237Z,95520.56
2022-12-23T23:01:00.507Z,95521.56
2022-12-23T23:03:27.669Z,95533.28
2022-12-23T23:06:03.361Z,95535.53
2022-12-23T23:08:30.604Z,95527.81
2022-12-23T23:10:59.643Z,95529.13
2022-12-23T23:13:29.578Z,95520.00
2022-12-23T23:15:56.803Z,95521.03
2022-12-23T23:18:23.654Z,95522.28
2022-12-23T23:20:50.546Z,95525.06
2022-12-23T23:23:18.089Z,95521.78
2022-12-23T23:25:44.794Z,95530.09
2022-12-23T23:28:11.757Z,95531.44
2022-12-23T23:30:39.046Z,95533.53
2022-12-23T23:33:06.751Z,95535.56
2022-12-23T23:35:33.286Z,95544.97
2022-12-23T23:38:00.021Z,95533.94
2022-12-23T23:40:26.984Z,95546.88
2022-12-23T23:42:53.536Z,95546.03
2022-12-23T23:45:20.568Z,95556.97
2022-12-23T23:47:46.902Z,95553.19
2022-12-23T23:50:13.448Z,95543.72
2022-12-23T23:52:40.239Z,95549.53
2022-12-23T23:55:07.344Z,95563.06
2022-12-23T23:57:33.788Z,95552.31
